sensor_id;sensor_type;location;lat;lon;timestamp;pressure;altitude;pressure_sealevel;temperature
74533;BMP180;63012;51.096;-115.366;2022-09-09T00:02:27;87357.40;;;23.70
74533;BMP180;63012;51.096;-115.366;2022-09-09T00:07:51;87361.40;;;23.70
74533;BMP180;63012;51.096;-115.366;2022-09-09T00:10:30;87360.60;;;23.76
74533;BMP180;63012;51.096;-115.366;2022-09-09T00:13:33;87360.80;;;23.80
74533;BMP180;63012;51.096;-115.366;2022-09-09T00:19:37;87362.80;;;23.80
74533;BMP180;63012;51.096;-115.366;2022-09-09T00:27:52;87356.00;;;23.80
74533;BMP180;63012;51.096;-115.366;2022-09-09T00:30:34;87358.40;;;23.86
74533;BMP180;63012;51.096;-115.366;2022-09-09T00:33:12;87362.00;;;23.86
74533;BMP180;63012;51.096;-115.366;2022-09-09T00:35:51;87365.60;;;23.90
74533;BMP180;63012;51.096;-115.366;2022-09-09T00:38:30;87365.60;;;23.90
74533;BMP180;63012;51.096;-115.366;2022-09-09T00:41:22;87367.00;;;23.90
74533;BMP180;63012;51.096;-115.366;2022-09-09T00:44:35;87370.80;;;23.90
74533;BMP180;63012;51.096;-115.366;2022-09-09T00:47:49;87366.60;;;23.90
74533;BMP180;63012;51.096;-115.366;2022-09-09T01:01:22;87373.80;;;23.88
74533;BMP180;63012;51.096;-115.366;2022-09-09T01:03:56;87379.20;;;23.84
74533;BMP180;63012;51.096;-115.366;2022-09-09T01:06:34;87383.00;;;23.84
74533;BMP180;63012;51.096;-115.366;2022-09-09T01:09:44;87391.80;;;23.90
74533;BMP180;63012;51.096;-115.366;2022-09-09T01:12:46;87401.60;;;23.90
74533;BMP180;63012;51.096;-115.366;2022-09-09T01:15:30;87403.80;;;23.88
74533;BMP180;63012;51.096;-115.366;2022-09-09T01:18:13;87402.60;;;23.86
74533;BMP180;63012;51.096;-115.366;2022-09-09T01:23:47;87407.20;;;23.88
74533;BMP180;63012;51.096;-115.366;2022-09-09T01:28:52;87410.20;;;23.84
74533;BMP180;63012;51.096;-115.366;2022-09-09T01:31:27;87417.60;;;23.88
74533;BMP180;63012;51.096;-115.366;2022-09-09T01:33:55;87418.60;;;23.86
74533;BMP180;63012;51.096;-115.366;2022-09-09T01:39:22;87420.40;;;23.84
74533;BMP180;63012;51.096;-115.366;2022-09-09T01:41:50;87421.00;;;23.84
74533;BMP180;63012;51.096;-115.366;2022-09-09T01:44:19;87416.40;;;23.80
74533;BMP180;63012;51.096;-115.366;2022-09-09T01:46:47;87413.80;;;23.80
74533;BMP180;63012;51.096;-115.366;2022-09-09T01:49:14;87413.80;;;23.80
74533;BMP180;63012;51.096;-115.366;2022-09-09T01:51:43;87415.40;;;23.80
74533;BMP180;63012;51.096;-115.366;2022-09-09T01:54:11;87413.80;;;23.80
74533;BMP180;63012;51.096;-115.366;2022-09-09T01:57:19;87416.80;;;23.80
74533;BMP180;63012;51.096;-115.366;2022-09-09T02:00:07;87411.60;;;23.80
74533;BMP180;63012;51.096;-115.366;2022-09-09T02:05:36;87410.40;;;23.80
74533;BMP180;63012;51.096;-115.366;2022-09-09T02:08:21;87420.80;;;23.80
74533;BMP180;63012;51.096;-115.366;2022-09-09T02:11:14;87423.40;;;23.78
74533;BMP180;63012;51.096;-115.366;2022-09-09T02:13:45;87430.00;;;23.76
74533;BMP180;63012;51.096;-115.366;2022-09-09T02:16:29;87429.60;;;23.70
74533;BMP180;63012;51.096;-115.366;2022-09-09T02:19:25;87431.60;;;23.70
74533;BMP180;63012;51.096;-115.366;2022-09-09T02:21:57;87429.00;;;23.70
74533;BMP180;63012;51.096;-115.366;2022-09-09T02:24:35;87434.80;;;23.70
74533;BMP180;63012;51.096;-115.366;2022-09-09T02:27:07;87433.60;;;23.70
74533;BMP180;63012;51.096;-115.366;2022-09-09T02:29:42;87435.40;;;23.70
74533;BMP180;63012;51.096;-115.366;2022-09-09T02:32:24;87438.60;;;23.70
74533;BMP180;63012;51.096;-115.366;2022-09-09T02:35:02;87444.00;;;23.70
74533;BMP180;63012;51.096;-115.366;2022-09-09T02:37:42;87447.20;;;23.70
74533;BMP180;63012;51.096;-115.366;2022-09-09T02:40:14;87449.60;;;23.70
74533;BMP180;63012;51.096;-115.366;2022-09-09T02:42:48;87455.60;;;23.70
74533;BMP180;63012;51.096;-115.366;2022-09-09T02:45:47;87457.60;;;23.70
74533;BMP180;63012;51.096;-115.366;2022-09-09T02:48:59;87462.60;;;23.70
74533;BMP180;63012;51.096;-115.366;2022-09-09T02:52:07;87458.40;;;23.70
74533;BMP180;63012;51.096;-115.366;2022-09-09T02:54:38;87464.60;;;23.70
74533;BMP180;63012;51.096;-115.366;2022-09-09T02:57:27;87464.80;;;23.70
74533;BMP180;63012;51.096;-115.366;2022-09-09T02:59:58;87461.60;;;23.68
74533;BMP180;63012;51.096;-115.366;2022-09-09T03:02:26;87461.40;;;23.62
74533;BMP180;63012;51.096;-115.366;2022-09-09T03:04:53;87461.60;;;23.60
74533;BMP180;63012;51.096;-115.366;2022-09-09T03:07:21;87463.20;;;23.60
74533;BMP180;63012;51.096;-115.366;2022-09-09T03:09:49;87467.80;;;23.60
74533;BMP180;63012;51.096;-115.366;2022-09-09T03:12:16;87465.20;;;23.60
74533;BMP180;63012;51.096;-115.366;2022-09-09T03:14:46;87465.00;;;23.60
74533;BMP180;63012;51.096;-115.366;2022-09-09T03:17:13;87462.00;;;23.60
74533;BMP180;63012;51.096;-115.366;2022-09-09T03:19:41;87465.40;;;23.60
74533;BMP180;63012;51.096;-115.366;2022-09-09T03:22:10;87460.00;;;23.50
74533;BMP180;63012;51.096;-115.366;2022-09-09T03:24:37;87461.20;;;23.50
74533;BMP180;63012;51.096;-115.366;2022-09-09T03:27:08;87463.60;;;23.50
74533;BMP180;63012;51.096;-115.366;2022-09-09T03:29:36;87467.80;;;23.50
74533;BMP180;63012;51.096;-115.366;2022-09-09T03:32:12;87462.40;;;23.50
74533;BMP180;63012;51.096;-115.366;2022-09-09T03:34:39;87464.00;;;23.50
74533;BMP180;63012;51.096;-115.366;2022-09-09T03:37:10;87470.20;;;23.50
74533;BMP180;63012;51.096;-115.366;2022-09-09T03:39:37;87470.60;;;23.44
74533;BMP180;63012;51.096;-115.366;2022-09-09T03:42:05;87469.80;;;23.40
74533;BMP180;63012;51.096;-115.366;2022-09-09T03:44:32;87468.80;;;23.40
74533;BMP180;63012;51.096;-115.366;2022-09-09T03:47:00;87465.00;;;23.40
74533;BMP180;63012;51.096;-115.366;2022-09-09T03:49:27;87469.40;;;23.40
74533;BMP180;63012;51.096;-115.366;2022-09-09T03:52:01;87466.20;;;23.40
74533;BMP180;63012;51.096;-115.366;2022-09-09T03:54:28;87461.60;;;23.38
74533;BMP180;63012;51.096;-115.366;2022-09-09T03:56:58;87464.40;;;23.38
74533;BMP180;63012;51.096;-115.366;2022-09-09T03:59:31;87463.40;;;23.30
74533;BMP180;63012;51.096;-115.366;2022-09-09T04:01:58;87462.80;;;23.30
74533;BMP180;63012;51.096;-115.366;2022-09-09T04:04:40;87461.40;;;23.30
74533;BMP180;63012;51.096;-115.366;2022-09-09T04:07:08;87470.20;;;23.30
74533;BMP180;63012;51.096;-115.366;2022-09-09T04:09:44;87470.20;;;23.30
74533;BMP180;63012;51.096;-115.366;2022-09-09T04:12:11;87472.40;;;23.30
74533;BMP180;63012;51.096;-115.366;2022-09-09T04:14:47;87475.40;;;23.28
74533;BMP180;63012;51.096;-115.366;2022-09-09T04:17:23;87474.60;;;23.20
74533;BMP180;63012;51.096;-115.366;2022-09-09T04:19:50;87479.80;;;23.20
74533;BMP180;63012;51.096;-115.366;2022-09-09T04:22:18;87483.60;;;23.20
74533;BMP180;63012;51.096;-115.366;2022-09-09T04:24:47;87489.40;;;23.20
74533;BMP180;63012;51.096;-115.366;2022-09-09T04:27:15;87489.00;;;23.20
74533;BMP180;63012;51.096;-115.366;2022-09-09T04:29:50;87491.20;;;23.20
74533;BMP180;63012;51.096;-115.366;2022-09-09T04:32:27;87490.60;;;23.20
74533;BMP180;63012;51.096;-115.366;2022-09-09T04:34:54;87488.00;;;23.14
74533;BMP180;63012;51.096;-115.366;2022-09-09T04:37:31;87485.40;;;23.10
74533;BMP180;63012;51.096;-115.366;2022-09-09T04:40:08;87491.40;;;23.10
74533;BMP180;63012;51.096;-115.366;2022-09-09T04:42:47;87494.20;;;23.10
74533;BMP180;63012;51.096;-115.366;2022-09-09T04:45:16;87490.20;;;23.10
74533;BMP180;63012;51.096;-115.366;2022-09-09T04:47:45;87498.40;;;23.10
74533;BMP180;63012;51.096;-115.366;2022-09-09T04:50:12;87503.20;;;23.10
74533;BMP180;63012;51.096;-115.366;2022-09-09T04:52:49;87507.60;;;23.08
74533;BMP180;63012;51.096;-115.366;2022-09-09T04:55:16;87509.80;;;23.00
74533;BMP180;63012;51.096;-115.366;2022-09-09T04:57:43;87519.00;;;23.00
74533;BMP180;63012;51.096;-115.366;2022-09-09T05:00:11;87528.40;;;23.00
74533;BMP180;63012;51.096;-115.366;2022-09-09T05:02:45;87533.80;;;23.00
74533;BMP180;63012;51.096;-115.366;2022-09-09T05:05:12;87540.60;;;23.00
74533;BMP180;63012;51.096;-115.366;2022-09-09T05:07:42;87544.00;;;23.00
74533;BMP180;63012;51.096;-115.366;2022-09-09T05:10:40;87547.80;;;22.96
74533;BMP180;63012;51.096;-115.366;2022-09-09T05:13:14;87555.80;;;22.94
74533;BMP180;63012;51.096;-115.366;2022-09-09T05:15:52;87556.20;;;22.90
74533;BMP180;63012;51.096;-115.366;2022-09-09T05:18:22;87562.00;;;22.90
74533;BMP180;63012;51.096;-115.366;2022-09-09T05:20:58;87570.60;;;22.90
74533;BMP180;63012;51.096;-115.366;2022-09-09T05:23:25;87571.60;;;22.90
74533;BMP180;63012;51.096;-115.366;2022-09-09T05:25:58;87573.20;;;22.90
74533;BMP180;63012;51.096;-115.366;2022-09-09T05:28:35;87574.60;;;22.90
74533;BMP180;63012;51.096;-115.366;2022-09-09T05:31:07;87592.00;;;22.90
74533;BMP180;63012;51.096;-115.366;2022-09-09T05:33:55;87595.80;;;22.82
74533;BMP180;63012;51.096;-115.366;2022-09-09T05:36:28;87601.40;;;22.80
74533;BMP180;63012;51.096;-115.366;2022-09-09T05:39:00;87600.80;;;22.80
74533;BMP180;63012;51.096;-115.366;2022-09-09T05:41:30;87597.40;;;22.80
74533;BMP180;63012;51.096;-115.366;2022-09-09T05:44:21;87596.20;;;22.80
74533;BMP180;63012;51.096;-115.366;2022-09-09T05:46:53;87597.80;;;22.80
74533;BMP180;63012;51.096;-115.366;2022-09-09T05:49:20;87607.00;;;22.80
74533;BMP180;63012;51.096;-115.366;2022-09-09T05:51:58;87613.60;;;22.72
74533;BMP180;63012;51.096;-115.366;2022-09-09T05:54:45;87627.40;;;22.70
74533;BMP180;63012;51.096;-115.366;2022-09-09T05:57:13;87629.20;;;22.70
74533;BMP180;63012;51.096;-115.366;2022-09-09T05:59:43;87633.20;;;22.70
74533;BMP180;63012;51.096;-115.366;2022-09-09T06:02:17;87638.80;;;22.70
74533;BMP180;63012;51.096;-115.366;2022-09-09T06:04:53;87646.40;;;22.70
74533;BMP180;63012;51.096;-115.366;2022-09-09T06:07:30;87655.40;;;22.70
74533;BMP180;63012;51.096;-115.366;2022-09-09T06:10:08;87666.60;;;22.66
74533;BMP180;63012;51.096;-115.366;2022-09-09T06:12:38;87672.00;;;22.60
74533;BMP180;63012;51.096;-115.366;2022-09-09T06:15:26;87683.60;;;22.60
74533;BMP180;63012;51.096;-115.366;2022-09-09T06:18:09;87689.40;;;22.60
74533;BMP180;63012;51.096;-115.366;2022-09-09T06:21:11;87701.80;;;22.60
74533;BMP180;63012;51.096;-115.366;2022-09-09T06:23:40;87709.40;;;22.60
74533;BMP180;63012;51.096;-115.366;2022-09-09T06:26:25;87718.80;;;22.60
74533;BMP180;63012;51.096;-115.366;2022-09-09T06:29:11;87721.00;;;22.60
74533;BMP180;63012;51.096;-115.366;2022-09-09T06:31:41;87732.40;;;22.60
74533;BMP180;63012;51.096;-115.366;2022-09-09T06:34:09;87740.20;;;22.58
74533;BMP180;63012;51.096;-115.366;2022-09-09T06:36:38;87742.60;;;22.50
74533;BMP180;63012;51.096;-115.366;2022-09-09T06:39:09;87753.60;;;22.50
74533;BMP180;63012;51.096;-115.366;2022-09-09T06:41:57;87751.40;;;22.50
74533;BMP180;63012;51.096;-115.366;2022-09-09T06:44:25;87755.00;;;22.50
74533;BMP180;63012;51.096;-115.366;2022-09-09T06:47:11;87760.40;;;22.50
74533;BMP180;63012;51.096;-115.366;2022-09-09T06:49:58;87759.80;;;22.50
74533;BMP180;63012;51.096;-115.366;2022-09-09T06:52:28;87760.80;;;22.40
74533;BMP180;63012;51.096;-115.366;2022-09-09T06:55:05;87764.20;;;22.40
74533;BMP180;63012;51.096;-115.366;2022-09-09T06:57:38;87764.80;;;22.40
74533;BMP180;63012;51.096;-115.366;2022-09-09T07:00:05;87763.60;;;22.40
74533;BMP180;63012;51.096;-115.366;2022-09-09T07:02:33;87762.60;;;22.40
74533;BMP180;63012;51.096;-115.366;2022-09-09T07:05:10;87771.60;;;22.40
74533;BMP180;63012;51.096;-115.366;2022-09-09T07:07:41;87777.80;;;22.36
74533;BMP180;63012;51.096;-115.366;2022-09-09T07:10:37;87783.20;;;22.38
74533;BMP180;63012;51.096;-115.366;2022-09-09T07:13:04;87781.60;;;22.36
74533;BMP180;63012;51.096;-115.366;2022-09-09T07:15:41;87785.80;;;22.30
74533;BMP180;63012;51.096;-115.366;2022-09-09T07:18:28;87780.00;;;22.30
74533;BMP180;63012;51.096;-115.366;2022-09-09T07:21:05;87775.00;;;22.30
74533;BMP180;63012;51.096;-115.366;2022-09-09T07:23:39;87771.40;;;22.30
74533;BMP180;63012;51.096;-115.366;2022-09-09T07:26:23;87764.60;;;22.30
74533;BMP180;63012;51.096;-115.366;2022-09-09T07:28:53;87757.80;;;22.30
74533;BMP180;63012;51.096;-115.366;2022-09-09T07:31:29;87756.40;;;22.30
74533;BMP180;63012;51.096;-115.366;2022-09-09T07:34:09;87752.40;;;22.30
74533;BMP180;63012;51.096;-115.366;2022-09-09T07:36:41;87755.80;;;22.30
74533;BMP180;63012;51.096;-115.366;2022-09-09T07:39:17;87752.80;;;22.20
74533;BMP180;63012;51.096;-115.366;2022-09-09T07:42:05;87760.40;;;22.20
74533;BMP180;63012;51.096;-115.366;2022-09-09T07:44:35;87761.00;;;22.20
74533;BMP180;63012;51.096;-115.366;2022-09-09T07:47:10;87765.60;;;22.20
74533;BMP180;63012;51.096;-115.366;2022-09-09T07:49:46;87761.40;;;22.20
74533;BMP180;63012;51.096;-115.366;2022-09-09T07:52:16;87760.20;;;22.18
74533;BMP180;63012;51.096;-115.366;2022-09-09T07:54:52;87757.40;;;22.10
74533;BMP180;63012;51.096;-115.366;2022-09-09T07:57:19;87751.00;;;22.10
74533;BMP180;63012;51.096;-115.366;2022-09-09T07:59:59;87748.60;;;22.10
74533;BMP180;63012;51.096;-115.366;2022-09-09T08:02:46;87741.60;;;22.10
74533;BMP180;63012;51.096;-115.366;2022-09-09T08:05:17;87743.00;;;22.10
74533;BMP180;63012;51.096;-115.366;2022-09-09T08:07:44;87743.80;;;22.10
74533;BMP180;63012;51.096;-115.366;2022-09-09T08:10:32;87745.00;;;22.08
74533;BMP180;63012;51.096;-115.366;2022-09-09T08:13:12;87749.40;;;22.08
74533;BMP180;63012;51.096;-115.366;2022-09-09T08:15:46;87749.20;;;22.10
74533;BMP180;63012;51.096;-115.366;2022-09-09T08:18:20;87745.20;;;22.00
74533;BMP180;63012;51.096;-115.366;2022-09-09T08:21:13;87740.60;;;22.00
74533;BMP180;63012;51.096;-115.366;2022-09-09T08:24:06;87734.40;;;22.00
74533;BMP180;63012;51.096;-115.366;2022-09-09T08:26:45;87730.60;;;22.00
74533;BMP180;63012;51.096;-115.366;2022-09-09T08:29:32;87737.60;;;22.00
74533;BMP180;63012;51.096;-115.366;2022-09-09T08:32:03;87730.00;;;22.00
74533;BMP180;63012;51.096;-115.366;2022-09-09T08:34:47;87731.60;;;22.00
74533;BMP180;63012;51.096;-115.366;2022-09-09T08:37:15;87729.60;;;22.00
74533;BMP180;63012;51.096;-115.366;2022-09-09T08:39:57;87727.80;;;21.96
74533;BMP180;63012;51.096;-115.366;2022-09-09T08:42:45;87733.40;;;21.92
74533;BMP180;63012;51.096;-115.366;2022-09-09T08:45:55;87733.40;;;21.90
74533;BMP180;63012;51.096;-115.366;2022-09-09T08:49:01;87736.80;;;21.90
74533;BMP180;63012;51.096;-115.366;2022-09-09T08:51:32;87734.20;;;21.90
74533;BMP180;63012;51.096;-115.366;2022-09-09T08:54:20;87728.80;;;21.90
74533;BMP180;63012;51.096;-115.366;2022-09-09T08:56:58;87731.00;;;21.90
74533;BMP180;63012;51.096;-115.366;2022-09-09T08:59:34;87729.60;;;21.86
74533;BMP180;63012;51.096;-115.366;2022-09-09T09:02:54;87729.40;;;21.82
74533;BMP180;63012;51.096;-115.366;2022-09-09T09:06:04;87724.40;;;21.80
74533;BMP180;63012;51.096;-115.366;2022-09-09T09:08:51;87725.20;;;21.80
74533;BMP180;63012;51.096;-115.366;2022-09-09T09:11:38;87727.80;;;21.80
74533;BMP180;63012;51.096;-115.366;2022-09-09T09:14:25;87732.00;;;21.80
74533;BMP180;63012;51.096;-115.366;2022-09-09T09:17:04;87730.80;;;21.80
74533;BMP180;63012;51.096;-115.366;2022-09-09T09:19:49;87728.00;;;21.80
74533;BMP180;63012;51.096;-115.366;2022-09-09T09:22:50;87728.80;;;21.80
74533;BMP180;63012;51.096;-115.366;2022-09-09T09:25:36;87731.00;;;21.78
74533;BMP180;63012;51.096;-115.366;2022-09-09T09:28:29;87728.80;;;21.70
74533;BMP180;63012;51.096;-115.366;2022-09-09T09:31:07;87724.20;;;21.70
74533;BMP180;63012;51.096;-115.366;2022-09-09T09:33:48;87723.00;;;21.70
74533;BMP180;63012;51.096;-115.366;2022-09-09T09:36:34;87725.80;;;21.70
74533;BMP180;63012;51.096;-115.366;2022-09-09T09:39:21;87724.20;;;21.70
74533;BMP180;63012;51.096;-115.366;2022-09-09T09:41:57;87729.80;;;21.70
74533;BMP180;63012;51.096;-115.366;2022-09-09T09:44:45;87728.00;;;21.70
74533;BMP180;63012;51.096;-115.366;2022-09-09T09:47:30;87730.20;;;21.70
74533;BMP180;63012;51.096;-115.366;2022-09-09T09:50:03;87728.60;;;21.68
74533;BMP180;63012;51.096;-115.366;2022-09-09T09:52:55;87723.20;;;21.66
74533;BMP180;63012;51.096;-115.366;2022-09-09T09:55:32;87722.00;;;21.60
74533;BMP180;63012;51.096;-115.366;2022-09-09T10:01:25;87733.00;;;21.60
74533;BMP180;63012;51.096;-115.366;2022-09-09T10:04:40;87723.60;;;21.60
74533;BMP180;63012;51.096;-115.366;2022-09-09T10:10:13;87722.80;;;21.60
74533;BMP180;63012;51.096;-115.366;2022-09-09T10:23:37;87734.40;;;21.50
74533;BMP180;63012;51.096;-115.366;2022-09-09T10:26:36;87740.40;;;21.50
74533;BMP180;63012;51.096;-115.366;2022-09-09T10:33:44;87740.40;;;21.48
74533;BMP180;63012;51.096;-115.366;2022-09-09T10:36:46;87745.80;;;21.40
74533;BMP180;63012;51.096;-115.366;2022-09-09T10:39:38;87743.40;;;21.40
74533;BMP180;63012;51.096;-115.366;2022-09-09T10:42:53;87740.00;;;21.40
74533;BMP180;63012;51.096;-115.366;2022-09-09T10:49:25;87741.40;;;21.40
74533;BMP180;63012;51.096;-115.366;2022-09-09T10:56:13;87752.00;;;21.34
74533;BMP180;63012;51.096;-115.366;2022-09-09T11:02:27;87738.60;;;21.30
74533;BMP180;63012;51.096;-115.366;2022-09-09T11:08:38;87744.00;;;21.30
74533;BMP180;63012;51.096;-115.366;2022-09-09T11:11:55;87740.60;;;21.30
74533;BMP180;63012;51.096;-115.366;2022-09-09T11:14:38;87743.40;;;21.30
74533;BMP180;63012;51.096;-115.366;2022-09-09T11:17:39;87745.20;;;21.28
74533;BMP180;63012;51.096;-115.366;2022-09-09T11:20:15;87741.60;;;21.22
74533;BMP180;63012;51.096;-115.366;2022-09-09T11:23:33;87740.20;;;21.20
74533;BMP180;63012;51.096;-115.366;2022-09-09T11:26:38;87749.00;;;21.20
74533;BMP180;63012;51.096;-115.366;2022-09-09T11:36:33;87754.40;;;21.20
74533;BMP180;63012;51.096;-115.366;2022-09-09T11:42:26;87748.20;;;21.20
74533;BMP180;63012;51.096;-115.366;2022-09-09T11:44:53;87749.20;;;21.20
74533;BMP180;63012;51.096;-115.366;2022-09-09T11:47:52;87747.60;;;21.12
74533;BMP180;63012;51.096;-115.366;2022-09-09T11:50:34;87749.40;;;21.10
74533;BMP180;63012;51.096;-115.366;2022-09-09T11:53:22;87751.20;;;21.10
74533;BMP180;63012;51.096;-115.366;2022-09-09T11:56:28;87750.60;;;21.10
74533;BMP180;63012;51.096;-115.366;2022-09-09T11:59:30;87748.80;;;21.10
74533;BMP180;63012;51.096;-115.366;2022-09-09T12:02:28;87756.80;;;21.10
74533;BMP180;63012;51.096;-115.366;2022-09-09T12:05:19;87761.40;;;21.10
74533;BMP180;63012;51.096;-115.366;2022-09-09T12:08:16;87751.00;;;21.10
74533;BMP180;63012;51.096;-115.366;2022-09-09T12:11:04;87753.60;;;21.10
74533;BMP180;63012;51.096;-115.366;2022-09-09T12:13:59;87749.20;;;21.04
74533;BMP180;63012;51.096;-115.366;2022-09-09T12:16:55;87746.20;;;21.04
74533;BMP180;63012;51.096;-115.366;2022-09-09T12:19:26;87739.80;;;21.04
74533;BMP180;63012;51.096;-115.366;2022-09-09T12:26:30;87739.60;;;21.10
74533;BMP180;63012;51.096;-115.366;2022-09-09T12:32:37;87742.80;;;21.00
74533;BMP180;63012;51.096;-115.366;2022-09-09T12:35:31;87740.60;;;21.02
74533;BMP180;63012;51.096;-115.366;2022-09-09T12:38:26;87740.00;;;21.00
74533;BMP180;63012;51.096;-115.366;2022-09-09T12:40:58;87743.60;;;21.02
74533;BMP180;63012;51.096;-115.366;2022-09-09T12:43:28;87745.00;;;21.00
74533;BMP180;63012;51.096;-115.366;2022-09-09T12:46:06;87742.40;;;21.00
74533;BMP180;63012;51.096;-115.366;2022-09-09T12:48:46;87746.60;;;21.04
74533;BMP180;63012;51.096;-115.366;2022-09-09T12:51:51;87751.80;;;21.02
74533;BMP180;63012;51.096;-115.366;2022-09-09T12:54:42;87749.60;;;21.04
74533;BMP180;63012;51.096;-115.366;2022-09-09T12:57:21;87749.40;;;21.06
74533;BMP180;63012;51.096;-115.366;2022-09-09T13:00:20;87749.80;;;21.06
74533;BMP180;63012;51.096;-115.366;2022-09-09T13:03:14;87750.60;;;21.02
74533;BMP180;63012;51.096;-115.366;2022-09-09T13:06:20;87748.60;;;21.04
74533;BMP180;63012;51.096;-115.366;2022-09-09T13:09:11;87750.00;;;21.02
74533;BMP180;63012;51.096;-115.366;2022-09-09T13:11:55;87746.40;;;21.00
74533;BMP180;63012;51.096;-115.366;2022-09-09T13:15:24;87737.40;;;21.00
74533;BMP180;63012;51.096;-115.366;2022-09-09T13:18:03;87742.80;;;21.00
74533;BMP180;63012;51.096;-115.366;2022-09-09T13:20:48;87743.20;;;21.04
74533;BMP180;63012;51.096;-115.366;2022-09-09T13:23:25;87747.20;;;21.06
74533;BMP180;63012;51.096;-115.366;2022-09-09T13:26:02;87750.80;;;21.10
74533;BMP180;63012;51.096;-115.366;2022-09-09T13:28:49;87758.00;;;21.10
74533;BMP180;63012;51.096;-115.366;2022-09-09T13:31:33;87761.00;;;21.10
74533;BMP180;63012;51.096;-115.366;2022-09-09T13:34:35;87758.60;;;21.10
74533;BMP180;63012;51.096;-115.366;2022-09-09T13:37:44;87758.20;;;21.10
74533;BMP180;63012;51.096;-115.366;2022-09-09T13:40:23;87761.20;;;21.10
74533;BMP180;63012;51.096;-115.366;2022-09-09T13:43:23;87762.40;;;21.10
74533;BMP180;63012;51.096;-115.366;2022-09-09T13:46:45;87767.60;;;21.10
74533;BMP180;63012;51.096;-115.366;2022-09-09T13:49:45;87769.40;;;21.10
74533;BMP180;63012;51.096;-115.366;2022-09-09T13:52:26;87766.00;;;21.10
74533;BMP180;63012;51.096;-115.366;2022-09-09T13:55:03;87771.00;;;21.10
74533;BMP180;63012;51.096;-115.366;2022-09-09T13:57:49;87773.20;;;21.10
74533;BMP180;63012;51.096;-115.366;2022-09-09T14:00:28;87775.60;;;21.10
74533;BMP180;63012;51.096;-115.366;2022-09-09T14:03:27;87771.80;;;21.10
74533;BMP180;63012;51.096;-115.366;2022-09-09T14:06:13;87779.60;;;21.10
74533;BMP180;63012;51.096;-115.366;2022-09-09T14:09:00;87781.40;;;21.12
74533;BMP180;63012;51.096;-115.366;2022-09-09T14:11:47;87775.00;;;21.12
74533;BMP180;63012;51.096;-115.366;2022-09-09T14:14:26;87772.40;;;21.16
74533;BMP180;63012;51.096;-115.366;2022-09-09T14:17:02;87761.60;;;21.14
74533;BMP180;63012;51.096;-115.366;2022-09-09T14:22:50;87772.20;;;21.20
74533;BMP180;63012;51.096;-115.366;2022-09-09T14:25:40;87767.80;;;21.16
74533;BMP180;63012;51.096;-115.366;2022-09-09T14:28:29;87774.00;;;21.18
74533;BMP180;63012;51.096;-115.366;2022-09-09T14:31:02;87778.00;;;21.16
74533;BMP180;63012;51.096;-115.366;2022-09-09T14:33:50;87776.60;;;21.20
74533;BMP180;63012;51.096;-115.366;2022-09-09T14:36:37;87781.40;;;21.20
74533;BMP180;63012;51.096;-115.366;2022-09-09T14:39:34;87780.40;;;21.20
74533;BMP180;63012;51.096;-115.366;2022-09-09T14:42:01;87783.40;;;21.20
74533;BMP180;63012;51.096;-115.366;2022-09-09T14:44:38;87787.60;;;21.20
74533;BMP180;63012;51.096;-115.366;2022-09-09T14:47:39;87781.20;;;21.20
74533;BMP180;63012;51.096;-115.366;2022-09-09T14:50:26;87784.40;;;21.20
74533;BMP180;63012;51.096;-115.366;2022-09-09T14:53:23;87786.60;;;21.20
74533;BMP180;63012;51.096;-115.366;2022-09-09T14:56:17;87784.20;;;21.20
74533;BMP180;63012;51.096;-115.366;2022-09-09T14:58:53;87779.60;;;21.20
74533;BMP180;63012;51.096;-115.366;2022-09-09T15:01:22;87782.80;;;21.20
74533;BMP180;63012;51.096;-115.366;2022-09-09T15:04:01;87786.80;;;21.20
74533;BMP180;63012;51.096;-115.366;2022-09-09T15:07:04;87791.60;;;21.20
74533;BMP180;63012;51.096;-115.366;2022-09-09T15:09:55;87797.40;;;21.20
74533;BMP180;63012;51.096;-115.366;2022-09-09T15:12:35;87796.20;;;21.20
74533;BMP180;63012;51.096;-115.366;2022-09-09T15:15:26;87804.80;;;21.18
74533;BMP180;63012;51.096;-115.366;2022-09-09T15:18:40;87805.20;;;21.18
74533;BMP180;63012;51.096;-115.366;2022-09-09T15:21:27;87802.60;;;21.10
74533;BMP180;63012;51.096;-115.366;2022-09-09T15:24:41;87802.80;;;21.10
74533;BMP180;63012;51.096;-115.366;2022-09-09T15:30:16;87808.00;;;21.10
74533;BMP180;63012;51.096;-115.366;2022-09-09T15:33:09;87797.40;;;21.10
74533;BMP180;63012;51.096;-115.366;2022-09-09T15:35:42;87794.80;;;21.10
74533;BMP180;63012;51.096;-115.366;2022-09-09T15:38:21;87798.20;;;21.10
74533;BMP180;63012;51.096;-115.366;2022-09-09T15:41:10;87793.80;;;21.10
74533;BMP180;63012;51.096;-115.366;2022-09-09T15:43:37;87801.20;;;21.10
74533;BMP180;63012;51.096;-115.366;2022-09-09T15:46:30;87792.60;;;21.04
74533;BMP180;63012;51.096;-115.366;2022-09-09T15:52:03;87781.80;;;21.04
74533;BMP180;63012;51.096;-115.366;2022-09-09T15:54:59;87774.80;;;21.00
74533;BMP180;63012;51.096;-115.366;2022-09-09T15:57:27;87777.00;;;21.00
74533;BMP180;63012;51.096;-115.366;2022-09-09T16:00:03;87777.40;;;21.00
74533;BMP180;63012;51.096;-115.366;2022-09-09T16:02:51;87768.60;;;21.00
74533;BMP180;63012;51.096;-115.366;2022-09-09T16:05:28;87764.40;;;21.00
74533;BMP180;63012;51.096;-115.366;2022-09-09T16:08:39;87773.80;;;21.00
74533;BMP180;63012;51.096;-115.366;2022-09-09T16:11:33;87773.20;;;21.00
74533;BMP180;63012;51.096;-115.366;2022-09-09T16:17:21;87767.20;;;21.00
74533;BMP180;63012;51.096;-115.366;2022-09-09T16:20:00;87764.00;;;21.00
74533;BMP180;63012;51.096;-115.366;2022-09-09T16:22:48;87766.40;;;21.00
74533;BMP180;63012;51.096;-115.366;2022-09-09T16:25:30;87767.40;;;20.98
74533;BMP180;63012;51.096;-115.366;2022-09-09T16:28:22;87771.20;;;20.90
74533;BMP180;63012;51.096;-115.366;2022-09-09T16:30:58;87773.20;;;20.90
74533;BMP180;63012;51.096;-115.366;2022-09-09T16:33:36;87773.20;;;20.90